Tuesday, November 21, 2017, 10:43 AM EST
Back to Local

KUKT, Quakertown, Quakertown Airport

Location: Quakertown, PA, United States Lat: 40.435
Local Time: 10:43 AM EST (15:43 GMT) Lon: -75.382
Time Zone: US/Eastern Elev: 524 ft

Show me the last for .
Show Decoded

2017-11-21 10:15 METAR KUKT 211515Z AUTO 22010G15KT 10SM CLR 08/00 A3011 RMK AO1 =
2017-11-21 09:55 METAR KUKT 211455Z AUTO 24008KT 190V270 10SM CLR 08/00 A3011 RMK AO1 =
2017-11-21 09:35 METAR KUKT 211435Z AUTO 22008KT 10SM CLR 07/00 A3012 RMK AO1 =
2017-11-21 09:15 METAR KUKT 211415Z AUTO 22007KT 10SM CLR 06/00 A3011 RMK AO1 =
2017-11-21 08:55 METAR KUKT 211355Z AUTO 22007KT 10SM CLR 05/00 A3011 RMK AO1 =
2017-11-21 08:35 METAR KUKT 211335Z AUTO 21004KT 10SM CLR 04/00 A3011 RMK AO1 =
2017-11-21 08:15 METAR KUKT 211315Z AUTO 19007KT 10SM CLR 04/00 A3011 RMK AO1 =
2017-11-21 07:55 METAR KUKT 211255Z AUTO 19004KT 10SM CLR 02/M01 A3011 RMK AO1 =
2017-11-21 07:35 METAR KUKT 211235Z AUTO 00000KT 10SM CLR M01/M03 A3011 RMK AO1 =
2017-11-21 07:15 METAR KUKT 211215Z AUTO 00000KT 10SM CLR M01/M03 A3011 RMK AO1 =
2017-11-21 06:55 METAR KUKT 211155Z AUTO 00000KT 10SM CLR M02/M04 A3011 RMK AO1 =
2017-11-21 06:35 METAR KUKT 211135Z AUTO 00000KT 10SM CLR M02/M04 A3011 RMK AO1 =
2017-11-21 06:15 METAR KUKT 211115Z AUTO 00000KT 10SM CLR M02/M04 A3011 RMK AO1 =
2017-11-21 05:55 METAR KUKT 211055Z AUTO 00000KT 10SM CLR M02/M04 A3010 RMK AO1 =
2017-11-21 05:35 METAR KUKT 211035Z AUTO 00000KT 10SM CLR M01/M04 A3011 RMK AO1 =
2017-11-21 05:15 METAR KUKT 211015Z AUTO 18003KT 10SM CLR 00/M04 A3011 RMK AO1 =
2017-11-21 04:55 METAR KUKT 210955Z AUTO 19003KT 10SM CLR 00/M04 A3011 RMK AO1 =
2017-11-21 04:35 METAR KUKT 210935Z AUTO 20004KT 10SM CLR M01/M04 A3010 RMK AO1 =
2017-11-21 04:15 METAR KUKT 210915Z AUTO 00000KT 10SM CLR 00/M04 A3010 RMK AO1 =
2017-11-21 03:55 METAR KUKT 210855Z AUTO 00000KT 10SM CLR 00/M05 A3010 RMK AO1 =
2017-11-21 03:35 METAR KUKT 210835Z AUTO 00000KT 10SM CLR 00/M04 A3011 RMK AO1 =
2017-11-21 03:15 METAR KUKT 210815Z AUTO 00000KT 10SM CLR 00/M05 A3012 RMK AO1 =
2017-11-21 02:55 METAR KUKT 210755Z AUTO 22003KT 10SM CLR 00/M05 A3012 RMK AO1 =
2017-11-21 02:35 METAR KUKT 210735Z AUTO 22003KT 10SM CLR 00/M05 A3013 RMK AO1 =
2017-11-21 02:15 METAR KUKT 210715Z AUTO 22003KT 10SM CLR M01/M04 A3013 RMK AO1 =
2017-11-21 01:55 METAR KUKT 210655Z AUTO 00000KT 10SM CLR M01/M04 A3013 RMK AO1 =
2017-11-21 01:35 METAR KUKT 210635Z AUTO 23003KT 10SM CLR M02/M04 A3013 RMK AO1 =
2017-11-21 01:15 METAR KUKT 210615Z AUTO 23003KT 10SM CLR M02/M04 A3013 RMK AO1 =
2017-11-21 00:55 METAR KUKT 210555Z AUTO 00000KT 10SM CLR M02/M04 A3013 RMK AO1 =
2017-11-21 00:35 METAR KUKT 210535Z AUTO 00000KT 10SM CLR M02/M04 A3013 RMK AO1 =
2017-11-21 00:15 METAR KUKT 210515Z AUTO 00000KT 10SM CLR M02/M04 A3014 RMK AO1 =
2017-11-20 23:55 METAR KUKT 210455Z AUTO 00000KT 10SM CLR M02/M04 A3014 RMK AO1 =
2017-11-20 23:35 METAR KUKT 210435Z AUTO 00000KT 10SM CLR M02/M04 A3014 RMK AO1 =
2017-11-20 23:15 METAR KUKT 210415Z AUTO 00000KT 10SM CLR M02/M04 A3014 RMK AO1 =
2017-11-20 22:55 METAR KUKT 210355Z AUTO 00000KT 10SM CLR M02/M04 A3014 RMK AO1 =
2017-11-20 22:35 METAR KUKT 210335Z AUTO 00000KT 10SM CLR M01/M04 A3014 RMK AO1 =
2017-11-20 22:15 METAR KUKT 210315Z AUTO 00000KT 10SM CLR M01/M04 A3014 RMK AO1 =
2017-11-20 21:55 METAR KUKT 210255Z AUTO 00000KT 10SM CLR M01/M04 A3013 RMK AO1 =
2017-11-20 21:35 METAR KUKT 210235Z AUTO 00000KT 10SM CLR 00/M04 A3013 RMK AO1 =
2017-11-20 21:15 METAR KUKT 210215Z AUTO 00000KT 10SM CLR 00/M04 A3013 RMK AO1 =
2017-11-20 20:55 METAR KUKT 210155Z AUTO 00000KT 10SM CLR 00/M04 A3013 RMK AO1 =
2017-11-20 20:35 METAR KUKT 210135Z AUTO 00000KT 10SM CLR 00/M04 A3013 RMK AO1 =
2017-11-20 20:15 METAR KUKT 210115Z AUTO 00000KT 10SM CLR 01/M04 A3013 RMK AO1 =
2017-11-20 19:55 METAR KUKT 210055Z AUTO 00000KT 10SM CLR 02/M04 A3013 RMK AO1 =
2017-11-20 19:35 METAR KUKT 210035Z AUTO 22003KT 10SM CLR 02/M05 A3013 RMK AO1 =
2017-11-20 19:15 METAR KUKT 210015Z AUTO 00000KT 10SM CLR 02/M04 A3013 RMK AO1 =
2017-11-20 18:55 METAR KUKT 202355Z AUTO 00000KT 10SM CLR 03/M05 A3012 RMK AO1 =
2017-11-20 18:35 METAR KUKT 202335Z AUTO 24003KT 10SM CLR 04/M05 A3012 RMK AO1 =
2017-11-20 18:15 METAR KUKT 202315Z AUTO 23005KT 10SM CLR 04/M05 A3012 RMK AO1 =
2017-11-20 17:55 METAR KUKT 202255Z AUTO 23004KT 10SM CLR 04/M05 A3011 RMK AO1 =
2017-11-20 17:35 METAR KUKT 202235Z AUTO 22004KT 10SM CLR 04/M05 A3011 RMK AO1 =
2017-11-20 17:15 METAR KUKT 202215Z AUTO 23006KT 10SM CLR 05/M05 A3011 RMK AO1 =
2017-11-20 16:55 METAR KUKT 202155Z AUTO 24004KT 10SM CLR 05/M05 A3010 RMK AO1 =
2017-11-20 16:35 METAR KUKT 202135Z AUTO 22008KT 10SM CLR 05/M05 A3010 RMK AO1 =
2017-11-20 16:15 METAR KUKT 202115Z AUTO 24007KT 10SM CLR 07/M05 A3010 RMK AO1 =
2017-11-20 15:55 METAR KUKT 202055Z AUTO 25006KT 10SM CLR 07/M05 A3010 RMK AO1 =
2017-11-20 15:35 METAR KUKT 202035Z AUTO 27010G15KT 10SM CLR 07/M05 A3009 RMK AO1 =
2017-11-20 15:15 METAR KUKT 202015Z AUTO 25008KT 230V300 10SM CLR 07/M05 A3008 RMK AO1 =
2017-11-20 14:55 METAR KUKT 201955Z AUTO 27009G19KT 10SM CLR 07/M05 A3008 RMK AO1 =
2017-11-20 14:35 METAR KUKT 201935Z AUTO 25011G15KT 220V280 10SM CLR 07/M04 A3008 RMK AO1 =
2017-11-20 14:15 METAR KUKT 201915Z AUTO 26009G17KT 230V290 10SM CLR 07/M04 A3007 RMK AO1 =
2017-11-20 13:55 METAR KUKT 201855Z AUTO 26009G16KT 10SM CLR 07/M04 A3007 RMK AO1 =
2017-11-20 13:35 METAR KUKT 201835Z AUTO 28010G16KT 10SM CLR 07/M05 A3007 RMK AO1 =
2017-11-20 13:15 METAR KUKT 201815Z AUTO 25011G15KT 10SM CLR 07/M05 A3006 RMK AO1 =
2017-11-20 12:55 METAR KUKT 201755Z AUTO 27009G16KT 10SM CLR 07/M05 A3007 RMK AO1 =
2017-11-20 12:35 METAR KUKT 201735Z AUTO 26012G20KT 230V310 10SM CLR 06/M05 A3007 RMK AO1 =
2017-11-20 12:15 METAR KUKT 201715Z AUTO 28007G19KT 240V300 10SM CLR 06/M05 A3007 RMK AO1 =
2017-11-20 11:55 METAR KUKT 201655Z AUTO 29007G17KT 260V320 10SM CLR 05/M05 A3007 RMK AO1 =
2017-11-20 11:35 METAR KUKT 201635Z AUTO 27013G19KT 10SM CLR 05/M05 A3008 RMK AO1 =
2017-11-20 11:15 METAR KUKT 201615Z AUTO 29006G19KT 10SM CLR 05/M05 A3008 RMK AO1 =
2017-11-20 10:55 METAR KUKT 201555Z AUTO 29007G20KT 250V330 10SM CLR 05/M06 A3009 RMK AO1 =

Support USWX by starting your Amazon purchase here.